Terminal Aerodrome Forecast
Issued by NWS Bismarck, ND

Home | Current Version | Previous Version | Text Only | Print | Product List | Glossary Off
Versions: 1 2 3 4 5 6 7 8 9 10 11 12 13 14 15 16 17 18 19 20

341
FTUS43 KBIS 260524
TAFISN
TAF
KISN 260524Z 2606/2706 VRB03KT P6SM FEW250
     FM261600 29010KT P6SM SCT250
     FM270500 00000KT P6SM FEW150=

USA.gov is the U.S. government's official web portal to all federal, state and local government web resources and services.